CheckWX is a tool to help pilots better visualize weather data.  It is not intended as a substitute for an official pre-flight weather briefing.

04:53:43 UTC

KHRT TAF
Hurlburt Field Airport
Mary Esther, Florida, USA
TAF AMD KHRT 260247Z 2602/2708 17006KT 9999 FEW060 BKN200 QNH2992INS BECMG 2602/2603 19008KT 9999 VCTS SCT025CB BKN150 QNH2990INS TEMPO 2603/2606 6000 -TSRA BKN025CB BECMG 2606/2607 19006KT 9999 NSW BKN025 QNH2989INS BECMG 2612/2613 18009KT 9000 SHRA SCT030 BKN120 BKN180 QNH2987INS TEMPO 2616/2620 19010G20KT 8000 -TSRA BKN040CB BKN220 BECMG 2620/2621 21009KT 9999 NSW SCT035 BKN180 BKN250 QNH2988INS TX31/2618Z TN24/2610Z

Aug-26@
02:00 UTC

Aug-26 @ 02:00 UTC

Aug-27@
08:00 UTC

Aug-27 @ 08:00 UTC

TAF AMD KHRT 260247Z 2602/2708 17006KT 9999 FEW060 BKN200 QNH2992INS
Wind
  • 170° at 6 KTS
Cloud Levels
  • Few at 6,000' AGL
  • Broken at 20,000' AGL

Aug-26@
02:00 UTC

Aug-26 @ 02:00 UTC

Aug-26@
06:00 UTC

Aug-26 @ 06:00 UTC

BECMG 2602/2603 19008KT 9999 VCTS SCT025CB BKN150 QNH2990INS

Becoming

Becoming Conditions expected by Mon, Aug 26, 2019 @ 03:00 UTC

Wind
  • 190° at 8 KTS
Conditions
Area Thunderstorm
Cloud Levels
  • Scattered at 2,500' AGL
  • Broken at 15,000' AGL

Aug-26@
03:00 UTC

Aug-26 @ 03:00 UTC

Aug-26@
06:00 UTC

Aug-26 @ 06:00 UTC

TEMPO 2603/2606 6000 -TSRA BKN025CB

Temporary

Temporary Changes expected for less than half the time period

Conditions
Light Thunderstorm, Light Rain
Cloud Levels
  • Broken at 2,500' AGL

Aug-26@
06:00 UTC

Aug-26 @ 06:00 UTC

Aug-26@
12:00 UTC

Aug-26 @ 12:00 UTC

BECMG 2606/2607 19006KT 9999 NSW BKN025 QNH2989INS

Becoming

Becoming Conditions expected by Mon, Aug 26, 2019 @ 07:00 UTC

Wind
  • 190° at 6 KTS
Conditions
No significant weather
Cloud Levels
  • Broken at 2,500' AGL

Aug-26@
12:00 UTC

Aug-26 @ 12:00 UTC

Aug-26@
20:00 UTC

Aug-26 @ 20:00 UTC

BECMG 2612/2613 18009KT 9000 SHRA SCT030 BKN120 BKN180 QNH2987INS

Becoming

Becoming Conditions expected by Mon, Aug 26, 2019 @ 13:00 UTC

Wind
  • 180° at 9 KTS
Conditions
Rain
Cloud Levels
  • Scattered at 3,000' AGL
  • Broken at 12,000' AGL
  • Broken at 18,000' AGL

Aug-26@
16:00 UTC

Aug-26 @ 16:00 UTC

Aug-26@
20:00 UTC

Aug-26 @ 20:00 UTC

TEMPO 2616/2620 19010G20KT 8000 -TSRA BKN040CB BKN220

Temporary

Temporary Changes expected for less than half the time period

Wind
  • 190° at 10 KTS
  • {Gusting to 20 KTS
Conditions
Light Thunderstorm, Light Rain
Cloud Levels
  • Broken at 4,000' AGL
  • Broken at 22,000' AGL

Aug-26@
20:00 UTC

Aug-26 @ 20:00 UTC

Aug-27@
08:00 UTC

Aug-27 @ 08:00 UTC

BECMG 2620/2621 21009KT 9999 NSW SCT035 BKN180 BKN250 QNH2988INS TX31/2618Z TN24/2610Z

Becoming

Becoming Conditions expected by Mon, Aug 26, 2019 @ 21:00 UTC

Wind
  • 210° at 9 KTS
Conditions
No significant weather
Cloud Levels
  • Scattered at 3,500' AGL
  • Broken at 18,000' AGL
  • Broken at 25,000' AGL